sensor_id;sensor_type;location;lat;lon;timestamp;temperature;humidity
573;DHT22;271;51.114;13.780;2023-04-29T00:01:19;10.80;1.00
573;DHT22;271;51.114;13.780;2023-04-29T00:04:07;10.70;1.00
573;DHT22;271;51.114;13.780;2023-04-29T00:06:54;10.80;1.00
573;DHT22;271;51.114;13.780;2023-04-29T00:09:42;10.70;1.00
573;DHT22;271;51.114;13.780;2023-04-29T00:12:31;10.80;1.00
573;DHT22;271;51.114;13.780;2023-04-29T00:15:19;10.80;1.00
573;DHT22;271;51.114;13.780;2023-04-29T00:18:07;10.80;1.00
573;DHT22;271;51.114;13.780;2023-04-29T00:20:55;10.90;1.00
573;DHT22;271;51.114;13.780;2023-04-29T00:23:43;10.90;1.00
573;DHT22;271;51.114;13.780;2023-04-29T00:26:31;10.90;1.00
573;DHT22;271;51.114;13.780;2023-04-29T00:29:20;11.00;1.00
573;DHT22;271;51.114;13.780;2023-04-29T00:32:08;11.00;1.00
573;DHT22;271;51.114;13.780;2023-04-29T00:34:56;11.00;1.00
573;DHT22;271;51.114;13.780;2023-04-29T00:37:44;11.10;1.00
573;DHT22;271;51.114;13.780;2023-04-29T00:40:32;11.10;1.00
573;DHT22;271;51.114;13.780;2023-04-29T00:43:19;11.10;1.00
573;DHT22;271;51.114;13.780;2023-04-29T00:46:08;11.10;1.00
573;DHT22;271;51.114;13.780;2023-04-29T00:48:57;11.10;1.00
573;DHT22;271;51.114;13.780;2023-04-29T00:51:44;11.10;1.00
573;DHT22;271;51.114;13.780;2023-04-29T00:54:32;11.20;1.00
573;DHT22;271;51.114;13.780;2023-04-29T00:57:21;11.20;1.00
573;DHT22;271;51.114;13.780;2023-04-29T01:00:09;11.30;1.00
573;DHT22;271;51.114;13.780;2023-04-29T01:03:00;11.30;1.00
573;DHT22;271;51.114;13.780;2023-04-29T01:05:53;11.30;1.00
573;DHT22;271;51.114;13.780;2023-04-29T01:08:54;11.30;1.00
573;DHT22;271;51.114;13.780;2023-04-29T01:12:10;11.30;1.00
573;DHT22;271;51.114;13.780;2023-04-29T01:15:04;11.30;1.00
573;DHT22;271;51.114;13.780;2023-04-29T01:18:03;11.30;1.00
573;DHT22;271;51.114;13.780;2023-04-29T01:20:52;11.40;1.00
573;DHT22;271;51.114;13.780;2023-04-29T01:23:41;11.40;1.00
573;DHT22;271;51.114;13.780;2023-04-29T01:26:31;11.40;1.00
573;DHT22;271;51.114;13.780;2023-04-29T01:29:26;11.50;1.00
573;DHT22;271;51.114;13.780;2023-04-29T01:32:17;11.40;1.00
573;DHT22;271;51.114;13.780;2023-04-29T01:35:20;11.40;1.00
573;DHT22;271;51.114;13.780;2023-04-29T01:38:22;11.40;1.00
573;DHT22;271;51.114;13.780;2023-04-29T01:41:19;11.50;1.00
573;DHT22;271;51.114;13.780;2023-04-29T01:44:14;11.50;1.00
573;DHT22;271;51.114;13.780;2023-04-29T01:47:04;11.50;1.00
573;DHT22;271;51.114;13.780;2023-04-29T01:49:52;11.40;1.00
573;DHT22;271;51.114;13.780;2023-04-29T01:52:40;11.30;1.00
573;DHT22;271;51.114;13.780;2023-04-29T01:55:28;11.30;1.00
573;DHT22;271;51.114;13.780;2023-04-29T01:58:17;11.20;1.00
573;DHT22;271;51.114;13.780;2023-04-29T02:01:04;11.00;1.00
573;DHT22;271;51.114;13.780;2023-04-29T02:03:52;10.90;1.00
573;DHT22;271;51.114;13.780;2023-04-29T02:06:40;10.90;1.00
573;DHT22;271;51.114;13.780;2023-04-29T02:09:28;10.90;1.00
573;DHT22;271;51.114;13.780;2023-04-29T02:12:15;10.90;1.00
573;DHT22;271;51.114;13.780;2023-04-29T02:15:05;10.90;2.80
573;DHT22;271;51.114;13.780;2023-04-29T02:17:54;10.80;4.00
573;DHT22;271;51.114;13.780;2023-04-29T02:20:42;10.80;7.30
573;DHT22;271;51.114;13.780;2023-04-29T02:23:29;10.70;9.50
573;DHT22;271;51.114;13.780;2023-04-29T02:26:17;10.70;14.20
573;DHT22;271;51.114;13.780;2023-04-29T02:29:05;10.70;15.10
573;DHT22;271;51.114;13.780;2023-04-29T02:31:55;10.70;18.20
573;DHT22;271;51.114;13.780;2023-04-29T02:34:42;10.70;21.90
573;DHT22;271;51.114;13.780;2023-04-29T02:37:30;10.60;25.40
573;DHT22;271;51.114;13.780;2023-04-29T02:40:18;10.60;30.30
573;DHT22;271;51.114;13.780;2023-04-29T02:43:06;10.70;32.60
573;DHT22;271;51.114;13.780;2023-04-29T02:45:54;10.70;35.80
573;DHT22;271;51.114;13.780;2023-04-29T02:48:44;10.70;35.20
573;DHT22;271;51.114;13.780;2023-04-29T02:51:31;10.70;35.80
573;DHT22;271;51.114;13.780;2023-04-29T02:54:19;10.70;37.20
573;DHT22;271;51.114;13.780;2023-04-29T02:57:07;10.60;39.30
573;DHT22;271;51.114;13.780;2023-04-29T02:59:54;10.60;43.30
573;DHT22;271;51.114;13.780;2023-04-29T03:02:42;10.60;44.70
573;DHT22;271;51.114;13.780;2023-04-29T03:05:31;10.70;45.20
573;DHT22;271;51.114;13.780;2023-04-29T03:08:20;10.70;46.10
573;DHT22;271;51.114;13.780;2023-04-29T03:11:07;10.60;48.00
573;DHT22;271;51.114;13.780;2023-04-29T03:13:55;10.60;49.30
573;DHT22;271;51.114;13.780;2023-04-29T03:16:43;10.60;53.30
573;DHT22;271;51.114;13.780;2023-04-29T03:19:30;10.70;54.50
573;DHT22;271;51.114;13.780;2023-04-29T03:22:19;10.70;56.90
573;DHT22;271;51.114;13.780;2023-04-29T03:25:07;10.80;57.30
573;DHT22;271;51.114;13.780;2023-04-29T03:27:56;10.80;57.20
573;DHT22;271;51.114;13.780;2023-04-29T03:30:43;10.80;56.10
573;DHT22;271;51.114;13.780;2023-04-29T03:33:31;10.70;56.40
573;DHT22;271;51.114;13.780;2023-04-29T03:36:19;10.70;57.40
573;DHT22;271;51.114;13.780;2023-04-29T03:39:08;10.80;57.70
573;DHT22;271;51.114;13.780;2023-04-29T03:41:57;10.80;58.60
573;DHT22;271;51.114;13.780;2023-04-29T03:44:45;10.90;58.20
573;DHT22;271;51.114;13.780;2023-04-29T03:47:32;10.90;58.20
573;DHT22;271;51.114;13.780;2023-04-29T03:50:22;10.80;55.10
573;DHT22;271;51.114;13.780;2023-04-29T03:53:10;10.90;56.00
573;DHT22;271;51.114;13.780;2023-04-29T03:55:59;10.90;56.10
573;DHT22;271;51.114;13.780;2023-04-29T03:58:47;10.90;53.70
573;DHT22;271;51.114;13.780;2023-04-29T04:01:34;10.90;52.30
573;DHT22;271;51.114;13.780;2023-04-29T04:04:22;10.90;49.80
573;DHT22;271;51.114;13.780;2023-04-29T04:07:10;10.80;46.70
573;DHT22;271;51.114;13.780;2023-04-29T04:09:58;10.90;47.40
573;DHT22;271;51.114;13.780;2023-04-29T04:12:47;10.90;48.60
573;DHT22;271;51.114;13.780;2023-04-29T04:15:34;10.90;46.60
573;DHT22;271;51.114;13.780;2023-04-29T04:18:22;10.90;48.10
573;DHT22;271;51.114;13.780;2023-04-29T04:21:11;10.90;48.50
573;DHT22;271;51.114;13.780;2023-04-29T04:23:59;10.90;49.40
573;DHT22;271;51.114;13.780;2023-04-29T04:26:46;10.90;49.30
573;DHT22;271;51.114;13.780;2023-04-29T04:29:36;11.00;49.90
573;DHT22;271;51.114;13.780;2023-04-29T04:32:23;11.00;48.70
573;DHT22;271;51.114;13.780;2023-04-29T04:35:11;11.00;47.80
573;DHT22;271;51.114;13.780;2023-04-29T04:37:59;11.10;46.90
573;DHT22;271;51.114;13.780;2023-04-29T04:40:47;11.10;46.30
573;DHT22;271;51.114;13.780;2023-04-29T04:43:34;11.10;44.30
573;DHT22;271;51.114;13.780;2023-04-29T04:46:23;11.20;45.40
573;DHT22;271;51.114;13.780;2023-04-29T04:49:11;11.20;44.00
573;DHT22;271;51.114;13.780;2023-04-29T04:51:59;11.20;42.60
573;DHT22;271;51.114;13.780;2023-04-29T04:54:47;11.20;43.40
573;DHT22;271;51.114;13.780;2023-04-29T04:57:35;11.30;44.20
573;DHT22;271;51.114;13.780;2023-04-29T05:00:22;11.30;41.30
573;DHT22;271;51.114;13.780;2023-04-29T05:03:11;11.40;39.40
573;DHT22;271;51.114;13.780;2023-04-29T05:05:59;11.50;39.00
573;DHT22;271;51.114;13.780;2023-04-29T05:08:47;11.50;37.40
573;DHT22;271;51.114;13.780;2023-04-29T05:11:35;11.50;39.10
573;DHT22;271;51.114;13.780;2023-04-29T05:14:22;11.60;40.50
573;DHT22;271;51.114;13.780;2023-04-29T05:17:10;11.70;40.70
573;DHT22;271;51.114;13.780;2023-04-29T05:19:59;11.80;39.60
573;DHT22;271;51.114;13.780;2023-04-29T05:22:47;11.80;39.80
573;DHT22;271;51.114;13.780;2023-04-29T05:25:34;11.80;36.50
573;DHT22;271;51.114;13.780;2023-04-29T05:28:22;11.70;35.30
573;DHT22;271;51.114;13.780;2023-04-29T05:31:10;11.70;34.90
573;DHT22;271;51.114;13.780;2023-04-29T05:33:57;11.80;38.90
573;DHT22;271;51.114;13.780;2023-04-29T05:36:46;11.80;35.60
573;DHT22;271;51.114;13.780;2023-04-29T05:39:34;11.80;35.90
573;DHT22;271;51.114;13.780;2023-04-29T05:42:22;11.90;37.40
573;DHT22;271;51.114;13.780;2023-04-29T05:45:10;11.90;37.60
573;DHT22;271;51.114;13.780;2023-04-29T05:47:58;11.90;38.60
573;DHT22;271;51.114;13.780;2023-04-29T05:50:45;11.90;37.80
573;DHT22;271;51.114;13.780;2023-04-29T05:53:35;11.90;36.00
573;DHT22;271;51.114;13.780;2023-04-29T05:56:23;11.90;37.50
573;DHT22;271;51.114;13.780;2023-04-29T05:59:11;11.90;38.00
573;DHT22;271;51.114;13.780;2023-04-29T06:01:59;12.00;40.40
573;DHT22;271;51.114;13.780;2023-04-29T06:04:47;12.30;53.40
573;DHT22;271;51.114;13.780;2023-04-29T06:07:35;12.90;63.80
573;DHT22;271;51.114;13.780;2023-04-29T06:10:24;13.80;59.90
573;DHT22;271;51.114;13.780;2023-04-29T06:13:12;13.90;1.00
573;DHT22;271;51.114;13.780;2023-04-29T06:16:00;13.80;1.00
573;DHT22;271;51.114;13.780;2023-04-29T06:18:47;13.80;1.00
573;DHT22;271;51.114;13.780;2023-04-29T06:21:35;13.70;1.00
573;DHT22;271;51.114;13.780;2023-04-29T06:24:23;13.60;1.00
573;DHT22;271;51.114;13.780;2023-04-29T06:27:12;13.60;1.00
573;DHT22;271;51.114;13.780;2023-04-29T06:29:59;13.50;1.00
573;DHT22;271;51.114;13.780;2023-04-29T06:32:47;13.50;1.00
573;DHT22;271;51.114;13.780;2023-04-29T06:35:38;13.40;1.00
573;DHT22;271;51.114;13.780;2023-04-29T06:38:26;13.40;1.00
573;DHT22;271;51.114;13.780;2023-04-29T06:41:13;13.40;1.00
573;DHT22;271;51.114;13.780;2023-04-29T06:44:02;13.30;1.00
573;DHT22;271;51.114;13.780;2023-04-29T06:46:50;13.40;1.00
573;DHT22;271;51.114;13.780;2023-04-29T06:49:38;13.40;1.00
573;DHT22;271;51.114;13.780;2023-04-29T06:52:25;13.40;1.00
573;DHT22;271;51.114;13.780;2023-04-29T06:55:13;13.30;1.00
573;DHT22;271;51.114;13.780;2023-04-29T06:58:01;13.20;1.00
573;DHT22;271;51.114;13.780;2023-04-29T07:00:51;13.10;1.00
573;DHT22;271;51.114;13.780;2023-04-29T07:03:38;13.10;1.00
573;DHT22;271;51.114;13.780;2023-04-29T07:06:26;13.20;1.00
573;DHT22;271;51.114;13.780;2023-04-29T07:09:14;13.10;1.80
573;DHT22;271;51.114;13.780;2023-04-29T07:12:02;13.00;1.00
573;DHT22;271;51.114;13.780;2023-04-29T07:14:50;13.00;1.00
573;DHT22;271;51.114;13.780;2023-04-29T07:17:39;13.20;2.90
573;DHT22;271;51.114;13.780;2023-04-29T07:20:27;13.20;1.00
573;DHT22;271;51.114;13.780;2023-04-29T07:23:15;13.10;1.00
573;DHT22;271;51.114;13.780;2023-04-29T07:26:09;13.10;1.00
573;DHT22;271;51.114;13.780;2023-04-29T07:28:56;13.10;1.00
573;DHT22;271;51.114;13.780;2023-04-29T07:31:44;13.00;1.00
573;DHT22;271;51.114;13.780;2023-04-29T07:34:33;13.00;2.30
573;DHT22;271;51.114;13.780;2023-04-29T07:37:22;12.90;5.40
573;DHT22;271;51.114;13.780;2023-04-29T07:40:10;12.80;9.20
573;DHT22;271;51.114;13.780;2023-04-29T07:42:58;12.90;15.80
573;DHT22;271;51.114;13.780;2023-04-29T07:45:50;12.90;16.90
573;DHT22;271;51.114;13.780;2023-04-29T07:48:38;13.00;17.40
573;DHT22;271;51.114;13.780;2023-04-29T07:51:27;13.00;8.70
573;DHT22;271;51.114;13.780;2023-04-29T07:54:15;12.90;8.90
573;DHT22;271;51.114;13.780;2023-04-29T07:57:04;12.90;6.00
573;DHT22;271;51.114;13.780;2023-04-29T07:59:52;12.90;7.00
573;DHT22;271;51.114;13.780;2023-04-29T08:02:40;12.90;10.40
573;DHT22;271;51.114;13.780;2023-04-29T08:05:29;12.90;5.50
573;DHT22;271;51.114;13.780;2023-04-29T08:08:18;12.80;2.40
573;DHT22;271;51.114;13.780;2023-04-29T08:11:06;12.70;1.00
573;DHT22;271;51.114;13.780;2023-04-29T08:13:55;12.70;2.50
573;DHT22;271;51.114;13.780;2023-04-29T08:16:44;12.80;5.30
573;DHT22;271;51.114;13.780;2023-04-29T08:19:32;12.90;8.60
573;DHT22;271;51.114;13.780;2023-04-29T08:22:20;13.00;11.00
573;DHT22;271;51.114;13.780;2023-04-29T08:25:10;13.30;12.50
573;DHT22;271;51.114;13.780;2023-04-29T08:27:57;13.60;14.20
573;DHT22;271;51.114;13.780;2023-04-29T08:30:45;13.70;1.00
573;DHT22;271;51.114;13.780;2023-04-29T08:33:33;13.80;1.00
573;DHT22;271;51.114;13.780;2023-04-29T08:36:21;13.80;1.00
573;DHT22;271;51.114;13.780;2023-04-29T08:39:09;14.50;1.00
573;DHT22;271;51.114;13.780;2023-04-29T08:41:58;14.60;1.00
573;DHT22;271;51.114;13.780;2023-04-29T08:44:46;14.50;1.00
573;DHT22;271;51.114;13.780;2023-04-29T08:47:34;14.30;1.00
573;DHT22;271;51.114;13.780;2023-04-29T08:50:23;14.20;1.00
573;DHT22;271;51.114;13.780;2023-04-29T08:53:13;14.10;1.00
573;DHT22;271;51.114;13.780;2023-04-29T08:56:08;14.10;1.00
573;DHT22;271;51.114;13.780;2023-04-29T08:59:01;14.10;1.00
573;DHT22;271;51.114;13.780;2023-04-29T09:01:50;14.00;1.00
573;DHT22;271;51.114;13.780;2023-04-29T09:04:56;13.90;1.00
573;DHT22;271;51.114;13.780;2023-04-29T09:07:48;13.80;1.00
573;DHT22;271;51.114;13.780;2023-04-29T09:10:37;13.70;1.00
573;DHT22;271;51.114;13.780;2023-04-29T09:13:26;13.70;1.00
573;DHT22;271;51.114;13.780;2023-04-29T09:16:15;13.90;1.00
573;DHT22;271;51.114;13.780;2023-04-29T09:19:03;13.90;1.00
573;DHT22;271;51.114;13.780;2023-04-29T09:21:53;13.90;1.00
573;DHT22;271;51.114;13.780;2023-04-29T09:24:41;13.90;1.00
573;DHT22;271;51.114;13.780;2023-04-29T09:27:30;13.70;1.00
573;DHT22;271;51.114;13.780;2023-04-29T09:30:19;13.70;1.00
573;DHT22;271;51.114;13.780;2023-04-29T09:33:09;13.50;1.00
573;DHT22;271;51.114;13.780;2023-04-29T09:35:58;13.40;1.00
573;DHT22;271;51.114;13.780;2023-04-29T09:38:52;13.30;1.00
573;DHT22;271;51.114;13.780;2023-04-29T09:44:45;13.40;1.00
573;DHT22;271;51.114;13.780;2023-04-29T09:47:42;13.60;1.00
573;DHT22;271;51.114;13.780;2023-04-29T09:50:31;13.70;1.00
573;DHT22;271;51.114;13.780;2023-04-29T09:53:27;13.80;1.00
573;DHT22;271;51.114;13.780;2023-04-29T09:56:16;13.90;1.00
573;DHT22;271;51.114;13.780;2023-04-29T09:59:07;13.90;1.00
573;DHT22;271;51.114;13.780;2023-04-29T10:01:56;13.80;1.00
573;DHT22;271;51.114;13.780;2023-04-29T10:04:45;13.70;1.00
573;DHT22;271;51.114;13.780;2023-04-29T10:07:34;13.60;1.00
573;DHT22;271;51.114;13.780;2023-04-29T10:10:29;13.50;1.00
573;DHT22;271;51.114;13.780;2023-04-29T10:13:17;13.50;1.00
573;DHT22;271;51.114;13.780;2023-04-29T10:16:13;13.90;1.00
573;DHT22;271;51.114;13.780;2023-04-29T10:19:14;14.50;1.00
573;DHT22;271;51.114;13.780;2023-04-29T10:22:15;14.80;1.00
573;DHT22;271;51.114;13.780;2023-04-29T10:25:25;14.70;1.00
573;DHT22;271;51.114;13.780;2023-04-29T10:28:14;14.60;1.00
573;DHT22;271;51.114;13.780;2023-04-29T10:31:03;14.30;1.00
573;DHT22;271;51.114;13.780;2023-04-29T10:33:55;14.20;1.00
573;DHT22;271;51.114;13.780;2023-04-29T10:36:44;14.30;1.00
573;DHT22;271;51.114;13.780;2023-04-29T10:39:41;14.40;1.00
573;DHT22;271;51.114;13.780;2023-04-29T10:42:52;14.50;1.00
573;DHT22;271;51.114;13.780;2023-04-29T10:45:40;14.30;1.00
573;DHT22;271;51.114;13.780;2023-04-29T10:48:31;14.20;1.00
573;DHT22;271;51.114;13.780;2023-04-29T10:51:29;14.20;1.00
573;DHT22;271;51.114;13.780;2023-04-29T10:54:18;14.30;1.00
573;DHT22;271;51.114;13.780;2023-04-29T10:57:27;14.30;1.00
573;DHT22;271;51.114;13.780;2023-04-29T11:00:25;14.50;1.00
573;DHT22;271;51.114;13.780;2023-04-29T11:06:45;14.70;1.00
573;DHT22;271;51.114;13.780;2023-04-29T11:09:34;14.70;1.00
573;DHT22;271;51.114;13.780;2023-04-29T11:12:25;14.70;1.00
573;DHT22;271;51.114;13.780;2023-04-29T11:15:33;14.60;1.00
573;DHT22;271;51.114;13.780;2023-04-29T11:18:22;14.30;1.00
573;DHT22;271;51.114;13.780;2023-04-29T11:21:13;14.20;1.00
573;DHT22;271;51.114;13.780;2023-04-29T11:24:01;14.10;1.00
573;DHT22;271;51.114;13.780;2023-04-29T11:26:51;14.10;1.00
573;DHT22;271;51.114;13.780;2023-04-29T11:29:39;14.20;1.00
573;DHT22;271;51.114;13.780;2023-04-29T11:32:30;14.20;1.00
573;DHT22;271;51.114;13.780;2023-04-29T11:35:19;14.00;1.00
573;DHT22;271;51.114;13.780;2023-04-29T11:38:07;14.00;1.00
573;DHT22;271;51.114;13.780;2023-04-29T11:40:56;14.00;1.00
573;DHT22;271;51.114;13.780;2023-04-29T11:43:45;14.10;1.00
573;DHT22;271;51.114;13.780;2023-04-29T11:46:33;14.20;1.00
573;DHT22;271;51.114;13.780;2023-04-29T11:49:28;14.30;1.00
573;DHT22;271;51.114;13.780;2023-04-29T11:52:16;14.50;1.00
573;DHT22;271;51.114;13.780;2023-04-29T11:55:07;14.80;1.00
573;DHT22;271;51.114;13.780;2023-04-29T11:57:55;15.00;1.00
573;DHT22;271;51.114;13.780;2023-04-29T12:00:43;15.00;1.00
573;DHT22;271;51.114;13.780;2023-04-29T12:03:31;14.80;1.00
573;DHT22;271;51.114;13.780;2023-04-29T12:06:21;14.70;1.00
573;DHT22;271;51.114;13.780;2023-04-29T12:09:09;14.80;1.00
573;DHT22;271;51.114;13.780;2023-04-29T12:11:57;14.80;1.00
573;DHT22;271;51.114;13.780;2023-04-29T12:14:45;14.80;1.00
573;DHT22;271;51.114;13.780;2023-04-29T12:17:33;14.80;1.00
573;DHT22;271;51.114;13.780;2023-04-29T12:20:21;14.80;1.00
573;DHT22;271;51.114;13.780;2023-04-29T12:23:14;14.90;1.00
573;DHT22;271;51.114;13.780;2023-04-29T12:26:03;14.80;1.00
573;DHT22;271;51.114;13.780;2023-04-29T12:28:53;14.60;1.00
573;DHT22;271;51.114;13.780;2023-04-29T12:31:41;14.40;1.00
573;DHT22;271;51.114;13.780;2023-04-29T12:34:30;14.20;1.00
573;DHT22;271;51.114;13.780;2023-04-29T12:37:18;14.00;1.00
573;DHT22;271;51.114;13.780;2023-04-29T12:40:12;14.00;1.00
573;DHT22;271;51.114;13.780;2023-04-29T12:43:26;14.10;1.00
573;DHT22;271;51.114;13.780;2023-04-29T12:46:15;14.20;1.00
573;DHT22;271;51.114;13.780;2023-04-29T12:49:05;14.20;1.00
573;DHT22;271;51.114;13.780;2023-04-29T12:51:55;14.10;1.00
573;DHT22;271;51.114;13.780;2023-04-29T12:54:44;13.90;1.00
573;DHT22;271;51.114;13.780;2023-04-29T13:01:29;13.40;1.00
573;DHT22;271;51.114;13.780;2023-04-29T13:05:09;13.20;1.00
573;DHT22;271;51.114;13.780;2023-04-29T13:16:04;12.90;1.00
573;DHT22;271;51.114;13.780;2023-04-29T13:18:53;12.90;1.00
573;DHT22;271;51.114;13.780;2023-04-29T13:21:42;12.70;1.00
573;DHT22;271;51.114;13.780;2023-04-29T13:24:31;12.70;1.00
573;DHT22;271;51.114;13.780;2023-04-29T13:27:21;12.60;1.00
573;DHT22;271;51.114;13.780;2023-04-29T13:30:09;12.50;1.00
573;DHT22;271;51.114;13.780;2023-04-29T13:33:05;12.40;1.00
573;DHT22;271;51.114;13.780;2023-04-29T13:35:54;12.30;1.00
573;DHT22;271;51.114;13.780;2023-04-29T13:38:42;12.20;1.00
573;DHT22;271;51.114;13.780;2023-04-29T13:41:29;12.00;1.00
573;DHT22;271;51.114;13.780;2023-04-29T13:44:17;11.80;1.00
573;DHT22;271;51.114;13.780;2023-04-29T13:47:39;11.70;1.00
573;DHT22;271;51.114;13.780;2023-04-29T14:25:07;11.50;1.00
573;DHT22;271;51.114;13.780;2023-04-29T14:28:15;11.50;1.00
573;DHT22;271;51.114;13.780;2023-04-29T14:31:03;11.60;1.00
573;DHT22;271;51.114;13.780;2023-04-29T14:33:50;11.60;1.00
573;DHT22;271;51.114;13.780;2023-04-29T14:36:38;11.60;1.00
573;DHT22;271;51.114;13.780;2023-04-29T14:39:26;11.70;1.00
573;DHT22;271;51.114;13.780;2023-04-29T14:42:15;11.70;1.00
573;DHT22;271;51.114;13.780;2023-04-29T14:45:04;11.80;1.00
573;DHT22;271;51.114;13.780;2023-04-29T14:47:54;11.90;1.00
573;DHT22;271;51.114;13.780;2023-04-29T14:50:42;11.90;1.00
573;DHT22;271;51.114;13.780;2023-04-29T14:53:29;11.80;1.00
573;DHT22;271;51.114;13.780;2023-04-29T14:56:20;11.90;1.00
573;DHT22;271;51.114;13.780;2023-04-29T14:59:09;11.90;1.00
573;DHT22;271;51.114;13.780;2023-04-29T15:01:57;11.90;1.00
573;DHT22;271;51.114;13.780;2023-04-29T15:04:44;11.90;1.00
573;DHT22;271;51.114;13.780;2023-04-29T15:07:35;12.00;1.00
573;DHT22;271;51.114;13.780;2023-04-29T15:10:23;12.10;1.00
573;DHT22;271;51.114;13.780;2023-04-29T15:13:13;12.20;1.00
573;DHT22;271;51.114;13.780;2023-04-29T15:16:03;12.30;1.00
573;DHT22;271;51.114;13.780;2023-04-29T15:18:52;12.30;1.00
573;DHT22;271;51.114;13.780;2023-04-29T15:21:40;12.30;1.00
573;DHT22;271;51.114;13.780;2023-04-29T15:24:28;12.30;1.00
573;DHT22;271;51.114;13.780;2023-04-29T15:27:15;12.30;1.00
573;DHT22;271;51.114;13.780;2023-04-29T15:30:07;12.30;1.00
573;DHT22;271;51.114;13.780;2023-04-29T15:32:56;12.20;1.00
573;DHT22;271;51.114;13.780;2023-04-29T15:35:44;12.20;1.00
573;DHT22;271;51.114;13.780;2023-04-29T15:38:31;12.10;1.00
573;DHT22;271;51.114;13.780;2023-04-29T15:41:22;12.10;1.00
573;DHT22;271;51.114;13.780;2023-04-29T15:44:11;12.30;1.00
573;DHT22;271;51.114;13.780;2023-04-29T15:47:02;12.30;1.00
573;DHT22;271;51.114;13.780;2023-04-29T15:49:51;12.40;1.00
573;DHT22;271;51.114;13.780;2023-04-29T15:52:41;12.40;1.00
573;DHT22;271;51.114;13.780;2023-04-29T15:55:30;12.50;1.00
573;DHT22;271;51.114;13.780;2023-04-29T15:58:20;12.60;1.00
573;DHT22;271;51.114;13.780;2023-04-29T16:01:10;12.60;1.00
573;DHT22;271;51.114;13.780;2023-04-29T16:03:58;12.70;1.00
573;DHT22;271;51.114;13.780;2023-04-29T16:06:47;12.70;1.00
573;DHT22;271;51.114;13.780;2023-04-29T16:09:35;12.80;1.00
573;DHT22;271;51.114;13.780;2023-04-29T16:13:01;12.70;1.00
573;DHT22;271;51.114;13.780;2023-04-29T16:16:53;12.70;1.00
573;DHT22;271;51.114;13.780;2023-04-29T16:28:11;12.60;1.00
573;DHT22;271;51.114;13.780;2023-04-29T16:31:26;12.70;1.00
573;DHT22;271;51.114;13.780;2023-04-29T16:53:54;12.40;1.00
573;DHT22;271;51.114;13.780;2023-04-29T17:00:25;12.40;1.00
573;DHT22;271;51.114;13.780;2023-04-29T17:03:36;12.50;1.00
573;DHT22;271;51.114;13.780;2023-04-29T17:06:58;12.40;1.00
573;DHT22;271;51.114;13.780;2023-04-29T17:10:05;12.40;1.00
573;DHT22;271;51.114;13.780;2023-04-29T17:12:52;12.40;1.00
573;DHT22;271;51.114;13.780;2023-04-29T17:15:40;12.40;1.00
573;DHT22;271;51.114;13.780;2023-04-29T17:18:28;12.40;1.00
573;DHT22;271;51.114;13.780;2023-04-29T17:21:16;12.40;1.00
573;DHT22;271;51.114;13.780;2023-04-29T17:24:04;12.40;1.00
573;DHT22;271;51.114;13.780;2023-04-29T17:26:53;12.40;1.00
573;DHT22;271;51.114;13.780;2023-04-29T17:29:40;12.40;1.00
573;DHT22;271;51.114;13.780;2023-04-29T17:32:28;12.40;1.00
573;DHT22;271;51.114;13.780;2023-04-29T17:35:16;12.40;1.00
573;DHT22;271;51.114;13.780;2023-04-29T17:38:04;12.30;1.00
573;DHT22;271;51.114;13.780;2023-04-29T17:40:51;12.30;1.00
573;DHT22;271;51.114;13.780;2023-04-29T17:43:41;12.30;1.00
573;DHT22;271;51.114;13.780;2023-04-29T17:46:28;12.40;1.00
573;DHT22;271;51.114;13.780;2023-04-29T17:49:16;12.30;1.00
573;DHT22;271;51.114;13.780;2023-04-29T17:52:04;12.30;1.00
573;DHT22;271;51.114;13.780;2023-04-29T17:54:52;12.30;1.00
573;DHT22;271;51.114;13.780;2023-04-29T17:57:40;12.30;1.00
573;DHT22;271;51.114;13.780;2023-04-29T18:00:30;12.20;1.00
573;DHT22;271;51.114;13.780;2023-04-29T18:03:17;12.10;1.00
573;DHT22;271;51.114;13.780;2023-04-29T18:06:05;12.10;1.00
573;DHT22;271;51.114;13.780;2023-04-29T18:08:56;12.10;1.00
573;DHT22;271;51.114;13.780;2023-04-29T18:11:44;12.00;1.00
573;DHT22;271;51.114;13.780;2023-04-29T18:14:34;12.00;1.00
573;DHT22;271;51.114;13.780;2023-04-29T18:17:25;12.00;1.00
573;DHT22;271;51.114;13.780;2023-04-29T18:20:13;12.00;1.00
573;DHT22;271;51.114;13.780;2023-04-29T18:23:01;12.00;1.00
573;DHT22;271;51.114;13.780;2023-04-29T18:25:55;11.90;1.00
573;DHT22;271;51.114;13.780;2023-04-29T18:28:43;11.90;1.00
573;DHT22;271;51.114;13.780;2023-04-29T18:31:31;11.90;1.00
573;DHT22;271;51.114;13.780;2023-04-29T18:34:20;11.90;1.00
573;DHT22;271;51.114;13.780;2023-04-29T18:37:08;11.90;1.00
573;DHT22;271;51.114;13.780;2023-04-29T18:39:56;11.80;1.00
573;DHT22;271;51.114;13.780;2023-04-29T18:42:44;11.90;1.00
573;DHT22;271;51.114;13.780;2023-04-29T18:45:31;11.90;1.00
573;DHT22;271;51.114;13.780;2023-04-29T18:48:19;11.90;1.00
573;DHT22;271;51.114;13.780;2023-04-29T18:51:08;11.90;1.00
573;DHT22;271;51.114;13.780;2023-04-29T18:53:56;11.90;1.00
573;DHT22;271;51.114;13.780;2023-04-29T18:56:44;11.90;1.00
573;DHT22;271;51.114;13.780;2023-04-29T18:59:33;11.90;1.00
573;DHT22;271;51.114;13.780;2023-04-29T19:02:23;11.90;1.00
573;DHT22;271;51.114;13.780;2023-04-29T19:05:11;11.80;1.00
573;DHT22;271;51.114;13.780;2023-04-29T19:08:00;11.70;1.00
573;DHT22;271;51.114;13.780;2023-04-29T19:10:48;11.80;1.00
573;DHT22;271;51.114;13.780;2023-04-29T19:13:38;11.80;1.00
573;DHT22;271;51.114;13.780;2023-04-29T19:16:26;11.80;1.00
573;DHT22;271;51.114;13.780;2023-04-29T19:19:14;11.80;1.00
573;DHT22;271;51.114;13.780;2023-04-29T19:22:01;11.80;1.00
573;DHT22;271;51.114;13.780;2023-04-29T19:24:52;11.80;1.00
573;DHT22;271;51.114;13.780;2023-04-29T19:27:39;11.80;1.00
573;DHT22;271;51.114;13.780;2023-04-29T19:30:30;11.80;1.00
573;DHT22;271;51.114;13.780;2023-04-29T19:33:21;11.80;1.00
573;DHT22;271;51.114;13.780;2023-04-29T19:36:11;11.80;1.00
573;DHT22;271;51.114;13.780;2023-04-29T19:38:59;11.70;1.00
573;DHT22;271;51.114;13.780;2023-04-29T19:41:51;11.70;1.00
573;DHT22;271;51.114;13.780;2023-04-29T19:44:39;11.70;1.00
573;DHT22;271;51.114;13.780;2023-04-29T19:47:26;11.70;1.00
573;DHT22;271;51.114;13.780;2023-04-29T19:50:14;11.70;1.00
573;DHT22;271;51.114;13.780;2023-04-29T19:53:02;11.60;1.00
573;DHT22;271;51.114;13.780;2023-04-29T19:55:51;11.70;1.00
573;DHT22;271;51.114;13.780;2023-04-29T19:58:40;11.60;1.00
573;DHT22;271;51.114;13.780;2023-04-29T20:01:32;11.70;1.00
573;DHT22;271;51.114;13.780;2023-04-29T20:04:20;11.60;1.00
573;DHT22;271;51.114;13.780;2023-04-29T20:07:09;11.60;1.00
573;DHT22;271;51.114;13.780;2023-04-29T20:09:57;11.60;1.00
573;DHT22;271;51.114;13.780;2023-04-29T20:12:45;11.70;1.00
573;DHT22;271;51.114;13.780;2023-04-29T20:15:34;11.70;1.00
573;DHT22;271;51.114;13.780;2023-04-29T20:18:22;11.70;1.00
573;DHT22;271;51.114;13.780;2023-04-29T20:21:09;11.60;1.00
573;DHT22;271;51.114;13.780;2023-04-29T20:23:57;11.60;1.00
573;DHT22;271;51.114;13.780;2023-04-29T20:26:45;11.50;1.00
573;DHT22;271;51.114;13.780;2023-04-29T20:29:33;11.60;1.00